createdAt,value
2023-02-22T00:01:38.077Z,22.63
2023-02-22T00:04:41.166Z,23.10
2023-02-22T00:07:45.956Z,22.63
2023-02-22T00:10:51.513Z,23.63
2023-02-22T00:13:57.342Z,23.40
2023-02-22T00:17:00.512Z,25.50
2023-02-22T00:20:06.669Z,24.30
2023-02-22T00:23:16.247Z,24.37
2023-02-22T00:26:21.520Z,24.27
2023-02-22T00:29:25.570Z,22.90
2023-02-22T00:32:28.631Z,25.97
2023-02-22T00:35:32.662Z,23.67
2023-02-22T00:38:37.046Z,24.10
2023-02-22T00:41:40.109Z,23.93
2023-02-22T00:44:43.162Z,23.87
2023-02-22T00:47:46.165Z,24.13
2023-02-22T00:50:49.651Z,24.73
2023-02-22T00:53:54.205Z,24.90
2023-02-22T00:56:58.238Z,24.20
2023-02-22T01:00:11.934Z,24.43
2023-02-22T01:03:16.941Z,24.43
2023-02-22T01:06:20.550Z,24.27
2023-02-22T01:09:25.338Z,24.27
2023-02-22T01:12:28.543Z,24.43
2023-02-22T01:15:32.103Z,23.53
2023-02-22T01:18:35.559Z,23.53
2023-02-22T01:21:38.526Z,23.20
2023-02-22T01:24:42.869Z,24.47
2023-02-22T01:27:46.091Z,24.90
2023-02-22T01:30:49.715Z,24.87
2023-02-22T01:33:53.819Z,22.87
2023-02-22T01:36:57.006Z,23.17
2023-02-22T01:40:01.381Z,24.43
2023-02-22T01:43:08.382Z,25.20
2023-02-22T01:46:23.175Z,23.00
2023-02-22T01:49:29.374Z,24.07
2023-02-22T01:52:32.575Z,23.90
2023-02-22T01:55:37.541Z,23.07
2023-02-22T01:58:44.436Z,24.80
2023-02-22T02:01:47.681Z,24.40
2023-02-22T02:04:50.756Z,23.03
2023-02-22T02:07:54.746Z,23.20
2023-02-22T02:11:01.037Z,23.57
2023-02-22T02:14:03.980Z,23.40
2023-02-22T02:17:09.896Z,24.33
2023-02-22T02:20:19.197Z,22.73
2023-02-22T02:23:55.142Z,22.93
2023-02-22T02:27:09.693Z,22.03
2023-02-22T02:30:52.793Z,22.73
2023-02-22T02:34:04.101Z,23.73
2023-02-22T02:37:12.398Z,23.30
2023-02-22T02:40:24.868Z,22.97
2023-02-22T02:43:33.006Z,23.50
2023-02-22T02:46:41.454Z,23.20
2023-02-22T02:49:52.550Z,23.67
2023-02-22T02:52:58.839Z,22.07
2023-02-22T02:56:01.898Z,23.10
2023-02-22T02:59:05.110Z,23.63
2023-02-22T03:02:24.028Z,22.73
2023-02-22T03:05:54.147Z,22.53
2023-02-22T03:09:06.288Z,22.57
2023-02-22T03:12:22.294Z,21.97
2023-02-22T03:15:37.087Z,23.47
2023-02-22T03:18:50.230Z,21.80
2023-02-22T03:22:01.609Z,21.50
2023-02-22T03:25:09.476Z,21.47
2023-02-22T03:28:18.015Z,21.57
2023-02-22T03:31:26.210Z,21.30
2023-02-22T03:34:33.894Z,19.70
2023-02-22T03:37:43.580Z,19.60
2023-02-22T03:40:51.199Z,18.40
2023-02-22T03:43:58.432Z,18.47
2023-02-22T03:47:05.446Z,18.17
2023-02-22T03:50:12.764Z,17.83
2023-02-22T03:53:19.527Z,17.83
2023-02-22T03:56:27.022Z,17.57
2023-02-22T03:59:30.336Z,18.00
2023-02-22T04:02:33.517Z,16.90
2023-02-22T04:05:36.480Z,16.10
2023-02-22T04:08:40.831Z,15.47
2023-02-22T04:11:44.124Z,14.20
2023-02-22T04:14:47.109Z,14.23
2023-02-22T04:17:52.262Z,14.00
2023-02-22T04:20:55.279Z,19.30
2023-02-22T04:24:00.546Z,52.20
2023-02-22T04:27:03.725Z,30.67
2023-02-22T04:30:07.301Z,37.87
2023-02-22T04:33:10.699Z,36.00
2023-02-22T04:36:16.160Z,27.93
2023-02-22T04:39:20.618Z,35.00
2023-02-22T04:42:23.643Z,33.10
2023-02-22T04:45:26.667Z,28.53
2023-02-22T04:48:29.648Z,24.43
2023-02-22T04:51:32.671Z,22.00
2023-02-22T04:54:37.095Z,14.43
2023-02-22T04:57:40.402Z,12.10
2023-02-22T05:00:43.425Z,12.60
2023-02-22T05:03:46.449Z,14.20
2023-02-22T05:06:49.467Z,16.53
2023-02-22T05:09:53.841Z,14.47
2023-02-22T05:12:56.847Z,15.77
2023-02-22T05:15:59.945Z,13.40
2023-02-22T05:19:03.051Z,12.90
2023-02-22T05:22:06.643Z,12.13
2023-02-22T05:25:11.655Z,12.53
2023-02-22T05:28:16.811Z,12.20
2023-02-22T05:31:20.136Z,12.00
2023-02-22T05:34:24.059Z,11.37
2023-02-22T05:37:27.128Z,10.50
2023-02-22T05:40:32.454Z,10.23
2023-02-22T05:43:35.413Z,10.60
2023-02-22T05:46:38.401Z,10.53
2023-02-22T05:49:41.426Z,11.67
2023-02-22T05:52:44.682Z,10.87
2023-02-22T05:55:49.151Z,9.80
2023-02-22T05:58:52.220Z,10.37
2023-02-22T06:01:55.262Z,10.30
2023-02-22T06:04:58.324Z,9.80
2023-02-22T06:08:01.540Z,10.03
2023-02-22T06:11:06.116Z,10.97
2023-02-22T06:14:09.427Z,10.37
2023-02-22T06:17:12.974Z,9.73
2023-02-22T06:20:18.406Z,9.63
2023-02-22T06:23:21.438Z,11.90
2023-02-22T06:26:25.820Z,10.37
2023-02-22T06:29:30.238Z,9.03
2023-02-22T06:32:33.344Z,10.20
2023-02-22T06:35:36.551Z,9.00
2023-02-22T06:38:39.551Z,9.10
2023-02-22T06:41:44.617Z,9.80
2023-02-22T06:44:47.641Z,9.77
2023-02-22T06:47:51.043Z,9.77
2023-02-22T06:50:54.194Z,8.83
2023-02-22T06:53:57.255Z,8.20
2023-02-22T07:00:24.982Z,9.00
2023-02-22T07:03:28.048Z,8.60
2023-02-22T07:06:31.089Z,8.30
2023-02-22T07:09:34.297Z,8.23
2023-02-22T07:12:38.867Z,7.40
2023-02-22T07:15:43.259Z,7.70
2023-02-22T07:18:46.281Z,12.90
2023-02-22T07:21:49.318Z,15.40
2023-02-22T07:24:52.518Z,13.80
2023-02-22T07:27:55.562Z,14.23
2023-02-22T07:31:01.525Z,15.10
2023-02-22T07:34:04.562Z,13.67
2023-02-22T07:37:07.567Z,12.97
2023-02-22T07:40:11.573Z,14.30
2023-02-22T07:43:17.593Z,11.97
2023-02-22T07:46:21.944Z,12.20
2023-02-22T07:49:24.946Z,12.77
2023-02-22T07:52:27.989Z,12.37
2023-02-22T07:55:32.509Z,12.30
2023-02-22T07:58:36.287Z,14.53
2023-02-22T08:01:40.745Z,11.70
2023-02-22T08:04:43.807Z,12.53
2023-02-22T08:07:46.907Z,11.10
2023-02-22T08:10:51.691Z,13.23
2023-02-22T08:13:54.737Z,10.63
2023-02-22T08:16:59.101Z,11.13
2023-02-22T08:20:02.063Z,11.87
2023-02-22T08:23:06.119Z,12.30
2023-02-22T08:26:15.612Z,10.77
2023-02-22T08:29:18.654Z,11.03
2023-02-22T08:32:23.775Z,10.60
2023-02-22T08:35:28.196Z,12.27
2023-02-22T08:38:34.055Z,12.63
2023-02-22T08:41:37.094Z,11.40
2023-02-22T08:44:40.971Z,11.20
2023-02-22T08:47:45.847Z,10.67
2023-02-22T08:50:50.036Z,10.10
2023-02-22T08:53:53.531Z,10.30
2023-02-22T08:56:56.755Z,10.43
2023-02-22T08:59:59.775Z,9.97
2023-02-22T09:03:05.566Z,10.17
2023-02-22T09:06:08.889Z,10.20
2023-02-22T09:09:12.117Z,9.77
2023-02-22T09:12:15.896Z,10.47
2023-02-22T09:15:22.984Z,11.03
2023-02-22T09:18:42.388Z,13.73
2023-02-22T09:21:46.647Z,19.67
2023-02-22T09:24:49.696Z,22.50
2023-02-22T09:27:53.906Z,22.67
2023-02-22T09:30:56.949Z,22.03
2023-02-22T09:34:04.148Z,20.40
2023-02-22T09:37:09.091Z,21.10
2023-02-22T09:40:25.345Z,19.70
2023-02-22T09:43:49.368Z,18.77
2023-02-22T09:46:56.273Z,17.70
2023-02-22T09:50:10.826Z,18.03
2023-02-22T09:53:29.555Z,16.70
2023-02-22T09:56:35.213Z,16.50
2023-02-22T09:59:43.640Z,15.33
2023-02-22T10:02:52.233Z,14.97
2023-02-22T10:06:02.082Z,15.03
2023-02-22T10:09:08.431Z,13.77
2023-02-22T10:12:16.258Z,14.77
2023-02-22T10:15:49.238Z,13.70
2023-02-22T10:19:16.963Z,13.87
2023-02-22T10:22:40.432Z,12.07
2023-02-22T10:25:46.130Z,12.70
2023-02-22T10:28:55.423Z,11.20
2023-02-22T10:32:01.564Z,11.40
2023-02-22T10:35:15.982Z,11.40
2023-02-22T10:38:24.527Z,12.17
2023-02-22T10:41:31.582Z,11.00
2023-02-22T10:44:34.649Z,10.93
2023-02-22T10:47:37.900Z,9.80
2023-02-22T10:50:43.531Z,10.53
2023-02-22T10:53:59.461Z,10.13
2023-02-22T10:57:04.155Z,9.00
2023-02-22T11:00:19.803Z,9.03
2023-02-22T11:03:25.410Z,9.47
2023-02-22T11:06:28.984Z,9.83
2023-02-22T11:09:46.405Z,9.33
2023-02-22T11:12:51.226Z,9.90
2023-02-22T11:15:55.989Z,11.17
2023-02-22T11:19:03.876Z,11.87
2023-02-22T11:22:14.869Z,10.10
2023-02-22T11:25:23.819Z,9.67
2023-02-22T11:28:33.197Z,9.90
2023-02-22T11:31:44.188Z,9.30
2023-02-22T11:34:49.360Z,9.77
2023-02-22T11:37:53.847Z,9.43
2023-02-22T11:41:14.802Z,8.80
2023-02-22T11:44:24.947Z,9.53
2023-02-22T11:47:28.118Z,10.03
2023-02-22T11:50:34.652Z,9.10
2023-02-22T11:53:54.644Z,8.87
2023-02-22T11:57:10.065Z,8.27
2023-02-22T12:00:24.747Z,8.37
2023-02-22T12:03:53.095Z,8.33
2023-02-22T12:07:15.586Z,8.60
2023-02-22T12:10:30.729Z,8.33
2023-02-22T12:13:49.903Z,8.20
2023-02-22T12:17:20.572Z,8.83
2023-02-22T12:20:26.264Z,9.50
2023-02-22T12:23:40.690Z,7.60
2023-02-22T12:26:47.286Z,7.63
2023-02-22T12:29:57.830Z,7.83
2023-02-22T12:33:06.247Z,8.13
2023-02-22T12:36:15.088Z,6.47
2023-02-22T12:39:41.004Z,8.10
2023-02-22T12:42:57.984Z,7.10
2023-02-22T12:46:07.872Z,7.30
2023-02-22T12:49:19.095Z,7.30
2023-02-22T12:52:35.199Z,8.00
2023-02-22T12:55:45.851Z,7.27
2023-02-22T12:58:55.394Z,9.77
2023-02-22T13:02:05.236Z,6.60
2023-02-22T13:05:15.731Z,6.67
2023-02-22T13:08:32.508Z,6.77
2023-02-22T13:11:43.778Z,6.40
2023-02-22T13:15:00.219Z,5.90
2023-02-22T13:18:16.156Z,6.10
2023-02-22T13:21:26.496Z,5.70
2023-02-22T13:24:39.612Z,5.13
2023-02-22T13:27:48.197Z,5.63
2023-02-22T13:31:04.819Z,5.30
2023-02-22T13:34:24.872Z,5.10
2023-02-22T13:37:47.400Z,4.63
2023-02-22T13:41:15.695Z,4.90
2023-02-22T13:45:04.375Z,4.27
2023-02-22T13:48:19.275Z,5.30
2023-02-22T13:51:47.870Z,4.27
2023-02-22T13:54:54.738Z,4.77
2023-02-22T13:58:03.397Z,4.97
2023-02-22T14:01:06.404Z,3.87
2023-02-22T14:04:45.706Z,4.20
2023-02-22T14:07:50.601Z,4.20
2023-02-22T14:10:56.377Z,4.30
2023-02-22T14:14:14.784Z,4.07
2023-02-22T14:17:35.651Z,4.07
2023-02-22T14:20:40.330Z,3.60
2023-02-22T14:23:46.520Z,4.00
2023-02-22T14:26:59.436Z,4.30
2023-02-22T14:30:02.634Z,3.63
2023-02-22T14:33:44.277Z,4.03
2023-02-22T14:36:52.902Z,4.60
2023-02-22T14:40:12.751Z,5.40
2023-02-22T14:43:20.059Z,4.20
2023-02-22T14:46:26.807Z,3.27
2023-02-22T14:49:34.307Z,4.00
2023-02-22T14:52:41.340Z,3.93
2023-02-22T14:55:52.125Z,4.30
2023-02-22T14:59:00.237Z,3.97
2023-02-22T15:02:11.794Z,3.63
2023-02-22T15:05:19.637Z,3.90
2023-02-22T15:08:28.429Z,3.97
2023-02-22T15:11:33.449Z,3.17
2023-02-22T15:14:38.990Z,3.57
2023-02-22T15:17:46.284Z,4.07
2023-02-22T15:20:55.964Z,4.27
2023-02-22T15:24:01.088Z,3.37
2023-02-22T15:27:07.712Z,3.70
2023-02-22T15:30:20.202Z,3.40
2023-02-22T15:33:34.177Z,3.90
2023-02-22T15:36:37.283Z,3.80
2023-02-22T15:39:43.996Z,3.73
2023-02-22T15:42:54.013Z,3.10
2023-02-22T15:45:57.984Z,3.40
2023-02-22T15:49:25.926Z,3.83
2023-02-22T15:52:29.288Z,3.30
2023-02-22T15:55:35.451Z,3.27
2023-02-22T15:58:40.368Z,8.57
2023-02-22T16:01:46.379Z,5.33
2023-02-22T16:04:59.268Z,4.23
2023-02-22T16:08:02.861Z,8.10
2023-02-22T16:11:13.094Z,7.17
2023-02-22T16:14:30.580Z,6.50
2023-02-22T16:17:37.644Z,6.77
2023-02-22T16:20:40.899Z,7.53
2023-02-22T16:23:49.297Z,7.10
2023-02-22T16:27:08.160Z,6.10
2023-02-22T16:30:26.117Z,8.43
2023-02-22T16:33:33.844Z,7.97
2023-02-22T16:36:41.945Z,7.03
2023-02-22T16:39:46.898Z,13.97
2023-02-22T16:42:51.603Z,9.60
2023-02-22T16:45:56.375Z,9.67
2023-02-22T16:49:03.428Z,8.37
2023-02-22T16:52:08.634Z,8.70
2023-02-22T16:55:14.086Z,7.93
2023-02-22T16:58:19.259Z,9.80
2023-02-22T17:01:24.569Z,7.40
2023-02-22T17:04:29.163Z,7.10
2023-02-22T17:07:32.233Z,8.13
2023-02-22T17:10:35.764Z,7.60
2023-02-22T17:13:40.459Z,7.07
2023-02-22T17:16:47.008Z,8.73
2023-02-22T17:19:50.059Z,10.10
2023-02-22T17:22:53.126Z,9.10
2023-02-22T17:25:59.309Z,9.53
2023-02-22T17:29:02.359Z,8.43
2023-02-22T17:32:07.206Z,8.30
2023-02-22T17:35:10.408Z,8.90
2023-02-22T17:38:13.488Z,8.17
2023-02-22T17:41:16.528Z,8.37
2023-02-22T17:44:19.546Z,9.50
2023-02-22T17:47:24.018Z,10.43
2023-02-22T17:50:28.321Z,10.53
2023-02-22T17:53:31.465Z,7.53
2023-02-22T17:56:34.756Z,9.37
2023-02-22T17:59:40.214Z,8.90
2023-02-22T18:02:45.449Z,8.90
2023-02-22T18:05:50.867Z,10.70
2023-02-22T18:08:56.373Z,11.63
2023-02-22T18:11:59.692Z,11.73
2023-02-22T18:15:02.660Z,12.97
2023-02-22T18:18:07.263Z,12.33
2023-02-22T18:21:10.453Z,13.90
2023-02-22T18:24:13.523Z,13.70
2023-02-22T18:27:16.551Z,11.37
2023-02-22T18:30:19.832Z,11.90
2023-02-22T18:33:24.243Z,11.33
2023-02-22T18:36:27.193Z,11.00
2023-02-22T18:39:33.895Z,11.40
2023-02-22T18:42:38.028Z,10.83
2023-02-22T18:45:41.081Z,10.17
2023-02-22T18:48:45.802Z,10.90
2023-02-22T18:51:49.692Z,10.80
2023-02-22T18:54:53.326Z,10.87
2023-02-22T18:57:56.451Z,10.20
2023-02-22T19:01:00.113Z,10.17
2023-02-22T19:04:04.497Z,10.13
2023-02-22T19:07:07.653Z,10.07
2023-02-22T19:10:11.244Z,9.63
2023-02-22T19:13:15.307Z,9.83
2023-02-22T19:16:20.686Z,9.77
2023-02-22T19:19:26.623Z,10.70
2023-02-22T19:22:32.848Z,10.17
2023-02-22T19:25:35.801Z,10.57
2023-02-22T19:28:39.054Z,10.27
2023-02-22T19:31:43.524Z,10.27
2023-02-22T19:34:48.082Z,11.10
2023-02-22T19:37:53.953Z,10.53
2023-02-22T19:40:56.923Z,11.07
2023-02-22T19:44:00.571Z,11.60
2023-02-22T19:47:09.016Z,11.33
2023-02-22T19:50:13.782Z,11.80
2023-02-22T19:53:17.760Z,11.77
2023-02-22T19:56:27.133Z,12.33
2023-02-22T19:59:30.313Z,13.83
2023-02-22T20:02:33.330Z,13.77
2023-02-22T20:05:40.217Z,13.23
2023-02-22T20:08:43.312Z,13.53
2023-02-22T20:11:46.479Z,14.20
2023-02-22T20:14:49.485Z,13.93
2023-02-22T20:17:52.935Z,13.40
2023-02-22T20:20:57.373Z,13.73
2023-02-22T20:24:01.291Z,13.37
2023-02-22T20:27:04.353Z,12.60
2023-02-22T20:30:08.751Z,13.70
2023-02-22T20:33:13.706Z,12.80
2023-02-22T20:36:20.205Z,13.73
2023-02-22T20:39:23.219Z,14.00
2023-02-22T20:42:26.298Z,15.00
2023-02-22T20:45:29.386Z,13.80
2023-02-22T20:48:33.440Z,14.03
2023-02-22T20:51:39.502Z,13.67
2023-02-22T20:54:42.745Z,15.67
2023-02-22T20:57:45.767Z,13.97
2023-02-22T21:00:49.616Z,14.00
2023-02-22T21:03:52.835Z,23.87
2023-02-22T21:06:57.185Z,18.00
2023-02-22T21:10:00.452Z,19.70
2023-02-22T21:13:05.505Z,19.60
2023-02-22T21:16:10.355Z,19.00
2023-02-22T21:19:15.481Z,21.13
2023-02-22T21:22:19.954Z,20.93
2023-02-22T21:25:23.155Z,21.43
2023-02-22T21:28:32.406Z,20.77
2023-02-22T21:31:45.775Z,21.70
2023-02-22T21:34:48.985Z,22.47
2023-02-22T21:37:53.704Z,22.63
2023-02-22T21:40:58.118Z,23.07
2023-02-22T21:44:01.437Z,22.07
2023-02-22T21:47:04.437Z,22.13
2023-02-22T21:50:10.408Z,23.10
2023-02-22T21:53:14.921Z,21.37
2023-02-22T21:56:20.430Z,23.33
2023-02-22T21:59:24.620Z,22.53
2023-02-22T22:02:29.179Z,22.07
2023-02-22T22:05:34.249Z,20.90
2023-02-22T22:08:41.239Z,21.37
2023-02-22T22:11:44.207Z,20.90
2023-02-22T22:14:47.237Z,20.93
2023-02-22T22:17:50.388Z,21.80
2023-02-22T22:20:53.952Z,20.77
2023-02-22T22:23:58.339Z,20.27
2023-02-22T22:27:03.747Z,19.80
2023-02-22T22:30:08.485Z,20.20
2023-02-22T22:33:12.027Z,20.03
2023-02-22T22:36:17.074Z,20.47
2023-02-22T22:39:21.466Z,21.07
2023-02-22T22:42:25.534Z,19.30
2023-02-22T22:45:28.709Z,19.00
2023-02-22T22:48:36.125Z,20.10
2023-02-22T22:51:40.940Z,19.27
2023-02-22T22:54:45.325Z,17.40
2023-02-22T22:57:48.313Z,19.83
2023-02-22T23:00:57.137Z,18.63
2023-02-22T23:04:02.742Z,18.57
2023-02-22T23:07:06.531Z,17.23
2023-02-22T23:10:12.753Z,17.70
2023-02-22T23:13:16.029Z,17.40
2023-02-22T23:16:20.025Z,16.37
2023-02-22T23:19:23.409Z,15.97
2023-02-22T23:22:27.946Z,16.73
2023-02-22T23:25:32.337Z,16.10
2023-02-22T23:28:35.673Z,16.90
2023-02-22T23:31:39.954Z,16.73
2023-02-22T23:34:43.057Z,16.20
2023-02-22T23:37:46.440Z,15.90
2023-02-22T23:40:54.070Z,15.00
2023-02-22T23:43:57.969Z,14.70
2023-02-22T23:47:02.529Z,14.93
2023-02-22T23:50:13.624Z,14.30
2023-02-22T23:53:16.613Z,15.17
2023-02-22T23:56:22.056Z,14.53
2023-02-22T23:59:25.656Z,14.63
